Airfield :
LOGIN :

Register | Disclaimer

   EN    FR    IT 

 










Legend :    VFR   Marginal VFR   IFR   Intensive IFR   Very Intensive IFR
Visi :
Ceiling :
>= 8 km
>= 3000ft
5 to 8 km
1000 to 3000 ft
1500m to 5 km
500 to 1000 ft
800 to 1500m
200 to 500 ft
< 800m
< 200 ft
Symbols :   Thunderstorms  Fog  Heavy snow  Heavy precipitations  Wind > 20 kt
SIGMETs :     Misc.  Thunderstorms  Icing  Turbulence  Mountain Waves  Volcanic Ashes







- Airport Elevation : 876 ft
- IATA code : MBX


LJMB - Maribor

CURRENT METAR :
  • 241530Z 12004KT 080V140 CAVOK 18/07 Q1023

EXPIRED METARs :
  • 241500Z 12005KT CAVOK 18/07 Q1023
  • 241430Z 09004KT 040V130 CAVOK 18/07 Q1023
  • 241400Z VRB02KT CAVOK 18/07 Q1023
  • 241330Z 12005KT 070V170 CAVOK 18/07 Q1023
  • 241300Z VRB03KT CAVOK 18/07 Q1023

TAF TAF LJMB
Valid from the 24 at 15:00 until the 25 at 15:00 UTC


241400Z 2415/2515 12005KT CAVOK
BECMG 2418/2420 03005KT
BECMG 2512/2515 12005KT
No reported NOTAMs for that airfield.



MET'MAP, your aeronautical weather chart ! - Copyright ORBIFLY December 2007 - Disclaimer

ORBIFLY MET'MAP TEAM :

Programming & Development : Alexandra Zaïnal
Concept & Development : Baudouin d'Aumeries
Co-Development & Prog : Marc-Olivier Méhu
Technical & hardware support : Manuel Goepfert

Contact : metmap@orbifly.com




SOURCES & CREDITS :

   NOAA